Gabriella — OJHP — position and weather

sailwx.info

Track history (hours):
 
Tides and Currents Weather Stations Pressure Air Temp Water Temp Dewpoint Dewpoint Depression Visibility Wind Speed Wind Dir Waves Ship Positions

Gabriella

Last reported at 2015-Mar-30 04:33 UTC. Time now 2015-Mar-30 07:10 UTC.
Position N 59°47' E 023°56'.

Length 172 m; draft 6.5 m.

Type: Ship (hazmat cat A). MMSI: 230361000.

Date/timePositionNaut miles runAvg speedWind from/ knotsBaromVisibWave heightAir tempDewpointWater temp
2015-Mar-30 04:33N 59°47' E 023°56'1818.2
2015-Mar-30 03:33N 59°42' E 023°22'3718.3
2015-Mar-30 01:33N 59°34' E 022°11'1818.0
2015-Mar-30 00:33N 59°33' E 021°36'1818.4
2015-Mar-29 23:33N 59°37' E 021°00'7810.6
2015-Mar-29 16:10N 59°28' E 018°26'7 9.6
2015-Mar-29 15:28N 59°22' E 018°27'1010.9
2015-Mar-29 14:33N 59°19' E 018°08'1 1.1
2015-Mar-29 13:32N 59°19' E 018°06'0 0.0
2015-Mar-29 12:32N 59°19' E 018°06'0 0.0
2015-Mar-29 11:32N 59°19' E 018°06'0 0.0
2015-Mar-29 10:32N 59°19' E 018°06'0 0.0
2015-Mar-29 09:32N 59°19' E 018°06'0 0.0
2015-Mar-29 08:32N 59°19' E 018°06'2 2.0
2015-Mar-29 07:33N 59°19' E 018°10'9510.2
2015-Mar-28 22:19N 59°36' E 021°13'1519.2
2015-Mar-28 21:33N 59°33' E 021°41'4619.2
2015-Mar-28 19:10N 59°40' E 023°10'1219.3
2015-Mar-28 18:33N 59°43' E 023°33'48 4.4
2015-Mar-28 07:32N 60°05' E 024°58'3417.5
2015-Mar-28 05:34N 59°46' E 023°60'1818.3
2015-Mar-28 04:34N 59°42' E 023°24'3718.2
2015-Mar-28 02:31N 59°34' E 022°12'1718.0
2015-Mar-28 01:34N 59°33' E 021°39'1818.3
2015-Mar-28 00:33N 59°36' E 021°03'8010.8
2015-Mar-27 17:09N 59°28' E 018°26'6 9.9
2015-Mar-27 16:33N 59°22' E 018°27'1110.6
2015-Mar-27 15:33N 59°19' E 018°07'0 0.4
2015-Mar-27 14:32N 59°19' E 018°06'0 0.0
2015-Mar-27 13:32N 59°19' E 018°06'0 0.0
2015-Mar-27 12:32N 59°19' E 018°06'0 0.0
2015-Mar-27 11:32N 59°19' E 018°06'0 0.0
2015-Mar-27 10:32N 59°19' E 018°06'0 0.0
2015-Mar-27 09:32N 59°19' E 018°06'2 2.0
2015-Mar-27 08:33N 59°19' E 018°10'91 9.6
2015-Mar-26 23:03N 59°37' E 021°06'816.5
2015-Mar-26 22:33N 59°35' E 021°21'1716.4
2015-Mar-26 21:31N 59°32' E 021°54'4017.1
2015-Mar-26 19:12N 59°41' E 023°10'1117.4
2015-Mar-26 18:33N 59°43' E 023°32'2418.8
2015-Mar-26 17:18N 59°50' E 024°17'2916.0
2015-Mar-26 15:31N 60°10' E 024°58'22 2.5
2015-Mar-26 06:32N 59°52' E 024°30'1818.3
2015-Mar-26 05:33N 59°47' E 023°56'1818.3
2015-Mar-26 04:33N 59°41' E 023°21'4018.0
2015-Mar-26 02:21N 59°33' E 022°05'1417.9
2015-Mar-26 01:33N 59°33' E 021°37'9711.5
2015-Mar-25 17:09N 59°27' E 018°26'6 9.8
2015-Mar-25 16:33N 59°22' E 018°27'1110.5
2015-Mar-25 15:33N 59°19' E 018°07'0 0.3
2015-Mar-25 14:33N 59°19' E 018°06'0 0.0
2015-Mar-25 13:30N 59°19' E 018°06'0 0.0
2015-Mar-25 12:33N 59°19' E 018°06'0 0.0
2015-Mar-25 11:33N 59°19' E 018°06'0 0.0
2015-Mar-25 10:33N 59°19' E 018°06'0 0.0
2015-Mar-25 09:33N 59°19' E 018°06'2 2.0
2015-Mar-25 08:33N 59°19' E 018°10'10210.2
2015-Mar-24 22:33N 59°34' E 021°28'5217.3
2015-Mar-24 19:33N 59°41' E 023°10'1717.2
2015-Mar-24 18:33N 59°45' E 023°43'1917.3
2015-Mar-24 17:26N 59°50' E 024°20'2714.4
2015-Mar-24 15:32N 60°10' E 024°58'38 3.8
2015-Mar-24 05:33N 59°47' E 023°57'1818.2
2015-Mar-24 04:33N 59°42' E 023°23'4518.1
2015-Mar-24 02:05N 59°32' E 021°56'918.0
2015-Mar-24 01:33N 59°32' E 021°37'9711.5
2015-Mar-23 17:07N 59°27' E 018°26'6 9.9
2015-Mar-23 16:32N 59°22' E 018°27'1010.5
2015-Mar-23 15:34N 59°19' E 018°07'1 0.8
2015-Mar-23 14:31N 59°19' E 018°06'0 0.0
2015-Mar-23 13:31N 59°19' E 018°06'0 0.0
2015-Mar-23 12:31N 59°19' E 018°06'0 0.0
2015-Mar-23 11:31N 59°19' E 018°06'0 0.0
2015-Mar-23 10:31N 59°19' E 018°06'0 0.0
2015-Mar-23 09:31N 59°19' E 018°06'2 1.6
2015-Mar-23 08:34N 59°19' E 018°09'92 9.8
2015-Mar-22 23:12N 59°37' E 021°06'1117.6
2015-Mar-22 22:34N 59°34' E 021°27'5217.3
2015-Mar-22 19:33N 59°40' E 023°09'1717.5
2015-Mar-22 18:33N 59°44' E 023°43'1917.5
2015-Mar-22 17:29N 59°49' E 024°18'29 3.0
2015-Mar-22 08:04N 60°10' E 024°58'9216.4
2015-Mar-22 02:26N 59°34' E 022°08'1618.1
2015-Mar-22 01:33N 59°33' E 021°37'9711.7
2015-Mar-21 17:13N 59°27' E 018°26'6 6.2
2015-Mar-21 16:12N 59°22' E 018°19'711.2
2015-Mar-21 15:34N 59°19' E 018°06'0 0.1
2015-Mar-21 14:32N 59°19' E 018°06'0 0.0
2015-Mar-21 13:32N 59°19' E 018°06'0 0.0
2015-Mar-21 12:32N 59°19' E 018°06'0 0.0
2015-Mar-21 11:32N 59°19' E 018°06'0 0.0
2015-Mar-21 10:32N 59°19' E 018°06'0 0.0
2015-Mar-21 09:32N 59°19' E 018°06'2 1.8
2015-Mar-21 08:34N 59°19' E 018°09'91 9.8
2015-Mar-20 23:15N 59°37' E 021°06'1217.4
2015-Mar-20 22:33N 59°34' E 021°29'5217.4
2015-Mar-20 19:33N 59°40' E 023°11'1817.6
2015-Mar-20 18:33N 59°44' E 023°46'1817.4
2015-Mar-20 17:32N 59°49' E 024°19'2 0.2
2015-Mar-20 06:13N 59°50' E 024°21'1217.9
2015-Mar-20 05:32N 59°47' E 023°59'1818.0
2015-Mar-20 04:33N 59°41' E 023°25'  
Track history (hours):
 
Tides and Currents Weather Stations Pressure Air Temp Water Temp Dewpoint Dewpoint Depression Visibility Wind Speed Wind Dir Waves Ship Positions

Gabriella

Last reported at 2015-Mar-30 04:33 UTC. Time now 2015-Mar-30 07:10 UTC.
Position N 59°47' E 023°56'.

Length 172 m; draft 6.5 m.

Type: Ship (hazmat cat A). MMSI: 230361000.

Date/timePositionNaut miles runAvg speedWind from/ knotsBaromVisibWave heightAir tempDewpointWater temp
2015-Mar-30 04:33N 59°47' E 023°56'1818.2
2015-Mar-30 03:33N 59°42' E 023°22'3718.3
2015-Mar-30 01:33N 59°34' E 022°11'1818.0
2015-Mar-30 00:33N 59°33' E 021°36'1818.4
2015-Mar-29 23:33N 59°37' E 021°00'7810.6
2015-Mar-29 16:10N 59°28' E 018°26'7 9.6
2015-Mar-29 15:28N 59°22' E 018°27'1010.9
2015-Mar-29 14:33N 59°19' E 018°08'1 1.1
2015-Mar-29 13:32N 59°19' E 018°06'0 0.0
2015-Mar-29 12:32N 59°19' E 018°06'0 0.0
2015-Mar-29 11:32N 59°19' E 018°06'0 0.0
2015-Mar-29 10:32N 59°19' E 018°06'0 0.0
2015-Mar-29 09:32N 59°19' E 018°06'0 0.0
2015-Mar-29 08:32N 59°19' E 018°06'2 2.0
2015-Mar-29 07:33N 59°19' E 018°10'9510.2
2015-Mar-28 22:19N 59°36' E 021°13'1519.2
2015-Mar-28 21:33N 59°33' E 021°41'4619.2
2015-Mar-28 19:10N 59°40' E 023°10'1219.3
2015-Mar-28 18:33N 59°43' E 023°33'48 4.4
2015-Mar-28 07:32N 60°05' E 024°58'3417.5
2015-Mar-28 05:34N 59°46' E 023°60'1818.3
2015-Mar-28 04:34N 59°42' E 023°24'3718.2
2015-Mar-28 02:31N 59°34' E 022°12'1718.0
2015-Mar-28 01:34N 59°33' E 021°39'1818.3
2015-Mar-28 00:33N 59°36' E 021°03'8010.8
2015-Mar-27 17:09N 59°28' E 018°26'6 9.9
2015-Mar-27 16:33N 59°22' E 018°27'1110.6
2015-Mar-27 15:33N 59°19' E 018°07'0 0.4
2015-Mar-27 14:32N 59°19' E 018°06'0 0.0
2015-Mar-27 13:32N 59°19' E 018°06'0 0.0
2015-Mar-27 12:32N 59°19' E 018°06'0 0.0
2015-Mar-27 11:32N 59°19' E 018°06'0 0.0
2015-Mar-27 10:32N 59°19' E 018°06'0 0.0
2015-Mar-27 09:32N 59°19' E 018°06'2 2.0
2015-Mar-27 08:33N 59°19' E 018°10'91 9.6
2015-Mar-26 23:03N 59°37' E 021°06'816.5
2015-Mar-26 22:33N 59°35' E 021°21'1716.4
2015-Mar-26 21:31N 59°32' E 021°54'4017.1
2015-Mar-26 19:12N 59°41' E 023°10'1117.4
2015-Mar-26 18:33N 59°43' E 023°32'2418.8
2015-Mar-26 17:18N 59°50' E 024°17'2916.0
2015-Mar-26 15:31N 60°10' E 024°58'22 2.5
2015-Mar-26 06:32N 59°52' E 024°30'1818.3
2015-Mar-26 05:33N 59°47' E 023°56'1818.3
2015-Mar-26 04:33N 59°41' E 023°21'4018.0
2015-Mar-26 02:21N 59°33' E 022°05'1417.9
2015-Mar-26 01:33N 59°33' E 021°37'9711.5
2015-Mar-25 17:09N 59°27' E 018°26'6 9.8
2015-Mar-25 16:33N 59°22' E 018°27'1110.5
2015-Mar-25 15:33N 59°19' E 018°07'0 0.3
2015-Mar-25 14:33N 59°19' E 018°06'0 0.0
2015-Mar-25 13:30N 59°19' E 018°06'0 0.0
2015-Mar-25 12:33N 59°19' E 018°06'0 0.0
2015-Mar-25 11:33N 59°19' E 018°06'0 0.0
2015-Mar-25 10:33N 59°19' E 018°06'0 0.0
2015-Mar-25 09:33N 59°19' E 018°06'2 2.0
2015-Mar-25 08:33N 59°19' E 018°10'10210.2
2015-Mar-24 22:33N 59°34' E 021°28'5217.3
2015-Mar-24 19:33N 59°41' E 023°10'1717.2
2015-Mar-24 18:33N 59°45' E 023°43'1917.3
2015-Mar-24 17:26N 59°50' E 024°20'2714.4
2015-Mar-24 15:32N 60°10' E 024°58'38 3.8
2015-Mar-24 05:33N 59°47' E 023°57'1818.2
2015-Mar-24 04:33N 59°42' E 023°23'4518.1
2015-Mar-24 02:05N 59°32' E 021°56'918.0
2015-Mar-24 01:33N 59°32' E 021°37'9711.5
2015-Mar-23 17:07N 59°27' E 018°26'6 9.9
2015-Mar-23 16:32N 59°22' E 018°27'1010.5
2015-Mar-23 15:34N 59°19' E 018°07'1 0.8
2015-Mar-23 14:31N 59°19' E 018°06'0 0.0
2015-Mar-23 13:31N 59°19' E 018°06'0 0.0
2015-Mar-23 12:31N 59°19' E 018°06'0 0.0
2015-Mar-23 11:31N 59°19' E 018°06'0 0.0
2015-Mar-23 10:31N 59°19' E 018°06'0 0.0
2015-Mar-23 09:31N 59°19' E 018°06'2 1.6
2015-Mar-23 08:34N 59°19' E 018°09'92 9.8
2015-Mar-22 23:12N 59°37' E 021°06'1117.6
2015-Mar-22 22:34N 59°34' E 021°27'5217.3
2015-Mar-22 19:33N 59°40' E 023°09'1717.5
2015-Mar-22 18:33N 59°44' E 023°43'1917.5
2015-Mar-22 17:29N 59°49' E 024°18'29 3.0
2015-Mar-22 08:04N 60°10' E 024°58'9216.4
2015-Mar-22 02:26N 59°34' E 022°08'1618.1
2015-Mar-22 01:33N 59°33' E 021°37'9711.7
2015-Mar-21 17:13N 59°27' E 018°26'6 6.2
2015-Mar-21 16:12N 59°22' E 018°19'711.2
2015-Mar-21 15:34N 59°19' E 018°06'0 0.1
2015-Mar-21 14:32N 59°19' E 018°06'0 0.0
2015-Mar-21 13:32N 59°19' E 018°06'0 0.0
2015-Mar-21 12:32N 59°19' E 018°06'0 0.0
2015-Mar-21 11:32N 59°19' E 018°06'0 0.0
2015-Mar-21 10:32N 59°19' E 018°06'0 0.0
2015-Mar-21 09:32N 59°19' E 018°06'2 1.8
2015-Mar-21 08:34N 59°19' E 018°09'91 9.8
2015-Mar-20 23:15N 59°37' E 021°06'1217.4
2015-Mar-20 22:33N 59°34' E 021°29'5217.4
2015-Mar-20 19:33N 59°40' E 023°11'1817.6
2015-Mar-20 18:33N 59°44' E 023°46'1817.4
2015-Mar-20 17:32N 59°49' E 024°19'2 0.2
2015-Mar-20 06:13N 59°50' E 024°21'1217.9
2015-Mar-20 05:32N 59°47' E 023°59'1818.0
2015-Mar-20 04:33N 59°41' E 023°25'  

Dump ship's entire track history